Ash Ridge, Ohio
Current Conditions -  °F | °C
As of 7:15 AM on Friday 28 Nov 2014 (Local Time) from KFGX Reporting Station
Overcast Overcast  
Wind Chill: 24°   Ceiling: 3800
Heat Index: 24°   Visibility: 10mi
Dew Point: 20°   Wind: 3mph
Humidity: 88%   Direction: 240°WSW
Pressure: 30.42"   Gusts: NA
Location:  38.8698°N, 83.9081°W
Report Text: KFGX 281215Z AUTO 24003KT 10SM OVC038 M05/M06 A3042 RMK AO2 T10471064
Loading
Personal Weather Stations






























Interactive Weather Map New forecast layout! Learn more

10-Day Weather Forecast

Advertisements
Track Severe Weather on mobile